sensor_id;sensor_type;location;lat;lon;timestamp;pressure;altitude;pressure_sealevel;temperature;humidity
11682;BME280;5897;42.640;23.310;2023-09-30T00:01:47;94346.75;;;17.38;62.68
11682;BME280;5897;42.640;23.310;2023-09-30T00:04:14;94350.53;;;17.22;63.16
11682;BME280;5897;42.640;23.310;2023-09-30T00:06:41;94344.63;;;17.24;63.00
11682;BME280;5897;42.640;23.310;2023-09-30T00:09:08;94319.97;;;17.00;62.97
11682;BME280;5897;42.640;23.310;2023-09-30T00:11:37;94342.19;;;17.26;62.48
11682;BME280;5897;42.640;23.310;2023-09-30T00:14:05;94338.97;;;17.36;63.43
11682;BME280;5897;42.640;23.310;2023-09-30T00:16:33;94340.06;;;17.30;63.85
11682;BME280;5897;42.640;23.310;2023-09-30T00:19:00;94344.03;;;17.38;63.41
11682;BME280;5897;42.640;23.310;2023-09-30T00:21:27;94337.91;;;17.43;63.28
11682;BME280;5897;42.640;23.310;2023-09-30T00:23:54;94340.50;;;17.37;62.77
11682;BME280;5897;42.640;23.310;2023-09-30T00:26:22;94335.50;;;17.45;62.82
11682;BME280;5897;42.640;23.310;2023-09-30T00:28:48;94333.94;;;17.53;62.12
11682;BME280;5897;42.640;23.310;2023-09-30T00:31:17;94337.44;;;17.53;63.64
11682;BME280;5897;42.640;23.310;2023-09-30T00:33:43;94334.25;;;17.55;63.26
11682;BME280;5897;42.640;23.310;2023-09-30T00:36:10;94331.53;;;17.55;62.69
11682;BME280;5897;42.640;23.310;2023-09-30T00:38:37;94330.59;;;17.58;61.75
11682;BME280;5897;42.640;23.310;2023-09-30T00:41:05;94336.03;;;17.67;61.12
11682;BME280;5897;42.640;23.310;2023-09-30T00:43:32;94332.69;;;17.63;62.56
11682;BME280;5897;42.640;23.310;2023-09-30T00:46:02;94337.72;;;17.64;61.70
11682;BME280;5897;42.640;23.310;2023-09-30T00:48:34;94331.47;;;17.73;61.38
11682;BME280;5897;42.640;23.310;2023-09-30T00:51:00;94328.47;;;17.62;61.41
11682;BME280;5897;42.640;23.310;2023-09-30T00:53:28;94338.47;;;17.65;60.98
11682;BME280;5897;42.640;23.310;2023-09-30T00:55:56;94328.31;;;17.56;62.46
11682;BME280;5897;42.640;23.310;2023-09-30T00:58:25;94329.88;;;17.48;62.15
11682;BME280;5897;42.640;23.310;2023-09-30T01:00:56;94339.38;;;17.62;61.89
11682;BME280;5897;42.640;23.310;2023-09-30T01:03:23;94337.66;;;17.73;61.33
11682;BME280;5897;42.640;23.310;2023-09-30T01:05:51;94330.88;;;17.60;62.48
11682;BME280;5897;42.640;23.310;2023-09-30T01:08:19;94325.28;;;17.54;62.66
11682;BME280;5897;42.640;23.310;2023-09-30T01:10:46;94320.47;;;17.49;62.50
11682;BME280;5897;42.640;23.310;2023-09-30T01:13:13;94323.47;;;17.51;62.31
11682;BME280;5897;42.640;23.310;2023-09-30T01:15:40;94324.22;;;17.61;60.83
11682;BME280;5897;42.640;23.310;2023-09-30T01:18:07;94317.03;;;17.72;61.74
11682;BME280;5897;42.640;23.310;2023-09-30T01:20:34;94317.09;;;17.54;62.46
11682;BME280;5897;42.640;23.310;2023-09-30T01:23:03;94314.66;;;17.56;62.38
11682;BME280;5897;42.640;23.310;2023-09-30T01:25:30;94318.00;;;17.60;62.00
11682;BME280;5897;42.640;23.310;2023-09-30T01:27:58;94324.53;;;17.54;62.03
11682;BME280;5897;42.640;23.310;2023-09-30T01:30:31;94326.94;;;17.61;62.48
11682;BME280;5897;42.640;23.310;2023-09-30T01:32:58;94329.09;;;17.57;63.14
11682;BME280;5897;42.640;23.310;2023-09-30T01:35:25;94320.88;;;17.57;63.13
11682;BME280;5897;42.640;23.310;2023-09-30T01:37:52;94320.56;;;17.64;62.06
11682;BME280;5897;42.640;23.310;2023-09-30T01:40:20;94304.16;;;17.64;61.32
11682;BME280;5897;42.640;23.310;2023-09-30T01:42:47;94317.34;;;17.74;61.15
11682;BME280;5897;42.640;23.310;2023-09-30T01:45:14;94323.53;;;17.75;60.97
11682;BME280;5897;42.640;23.310;2023-09-30T01:47:41;94320.78;;;17.84;60.87
11682;BME280;5897;42.640;23.310;2023-09-30T01:50:08;94318.22;;;17.80;61.96
11682;BME280;5897;42.640;23.310;2023-09-30T01:52:35;94317.09;;;17.87;61.75
11682;BME280;5897;42.640;23.310;2023-09-30T01:55:02;94315.56;;;17.95;60.91
11682;BME280;5897;42.640;23.310;2023-09-30T01:57:30;94316.13;;;17.99;61.04
11682;BME280;5897;42.640;23.310;2023-09-30T01:59:57;94322.66;;;18.01;61.19
11682;BME280;5897;42.640;23.310;2023-09-30T02:02:24;94309.75;;;18.02;61.35
11682;BME280;5897;42.640;23.310;2023-09-30T02:04:51;94311.72;;;18.01;61.31
11682;BME280;5897;42.640;23.310;2023-09-30T02:07:18;94313.81;;;18.06;61.56
11682;BME280;5897;42.640;23.310;2023-09-30T02:09:45;94313.41;;;17.99;61.56
11682;BME280;5897;42.640;23.310;2023-09-30T02:12:12;94314.81;;;17.94;60.87
11682;BME280;5897;42.640;23.310;2023-09-30T02:14:40;94313.47;;;17.90;61.59
11682;BME280;5897;42.640;23.310;2023-09-30T02:17:07;94314.34;;;17.96;62.55
11682;BME280;5897;42.640;23.310;2023-09-30T02:19:34;94306.78;;;17.91;64.18
11682;BME280;5897;42.640;23.310;2023-09-30T02:22:01;94306.59;;;17.94;63.95
11682;BME280;5897;42.640;23.310;2023-09-30T02:24:28;94307.03;;;17.69;65.24
11682;BME280;5897;42.640;23.310;2023-09-30T02:26:55;94308.09;;;17.72;63.90
11682;BME280;5897;42.640;23.310;2023-09-30T02:29:22;94306.41;;;17.74;63.62
11682;BME280;5897;42.640;23.310;2023-09-30T02:31:50;94312.00;;;17.71;64.73
11682;BME280;5897;42.640;23.310;2023-09-30T02:34:18;94315.34;;;17.75;64.47
11682;BME280;5897;42.640;23.310;2023-09-30T02:36:44;94310.47;;;17.79;65.09
11682;BME280;5897;42.640;23.310;2023-09-30T02:39:11;94305.00;;;17.79;64.78
11682;BME280;5897;42.640;23.310;2023-09-30T02:41:41;94311.56;;;17.72;64.02
11682;BME280;5897;42.640;23.310;2023-09-30T02:44:08;94313.41;;;17.66;65.31
11682;BME280;5897;42.640;23.310;2023-09-30T02:46:35;94314.09;;;17.52;64.85
11682;BME280;5897;42.640;23.310;2023-09-30T02:49:04;94319.72;;;17.49;64.16
11682;BME280;5897;42.640;23.310;2023-09-30T02:51:31;94306.38;;;17.33;64.89
11682;BME280;5897;42.640;23.310;2023-09-30T02:53:57;94310.47;;;17.28;64.56
11682;BME280;5897;42.640;23.310;2023-09-30T02:56:24;94312.00;;;17.20;63.98
11682;BME280;5897;42.640;23.310;2023-09-30T02:58:52;94310.06;;;17.21;63.10
11682;BME280;5897;42.640;23.310;2023-09-30T03:01:19;94309.13;;;17.24;63.65
11682;BME280;5897;42.640;23.310;2023-09-30T03:03:46;94313.41;;;17.16;64.55
11682;BME280;5897;42.640;23.310;2023-09-30T03:06:14;94307.03;;;17.10;65.01
11682;BME280;5897;42.640;23.310;2023-09-30T03:08:41;94307.03;;;17.10;64.79
11682;BME280;5897;42.640;23.310;2023-09-30T03:11:08;94309.78;;;17.01;64.26
11682;BME280;5897;42.640;23.310;2023-09-30T03:13:34;94308.09;;;16.94;65.91
11682;BME280;5897;42.640;23.310;2023-09-30T03:16:02;94315.88;;;16.87;67.31
11682;BME280;5897;42.640;23.310;2023-09-30T03:18:29;94312.06;;;16.93;67.25
11682;BME280;5897;42.640;23.310;2023-09-30T03:20:59;94304.19;;;16.95;66.39
11682;BME280;5897;42.640;23.310;2023-09-30T03:23:28;94308.09;;;17.03;66.23
11682;BME280;5897;42.640;23.310;2023-09-30T03:25:59;94305.69;;;16.96;65.99
11682;BME280;5897;42.640;23.310;2023-09-30T03:28:29;94302.81;;;16.91;66.78
11682;BME280;5897;42.640;23.310;2023-09-30T03:30:56;94300.97;;;16.97;67.03
11682;BME280;5897;42.640;23.310;2023-09-30T03:33:23;94301.59;;;17.01;67.08
11682;BME280;5897;42.640;23.310;2023-09-30T03:35:49;94315.84;;;16.96;67.01
11682;BME280;5897;42.640;23.310;2023-09-30T03:38:17;94310.72;;;16.89;68.81
11682;BME280;5897;42.640;23.310;2023-09-30T03:40:46;94305.53;;;16.91;68.49
11682;BME280;5897;42.640;23.310;2023-09-30T03:43:14;94308.88;;;16.86;68.33
11682;BME280;5897;42.640;23.310;2023-09-30T03:45:40;94311.03;;;16.82;69.22
11682;BME280;5897;42.640;23.310;2023-09-30T03:48:07;94294.03;;;16.78;69.92
11682;BME280;5897;42.640;23.310;2023-09-30T03:50:35;94308.00;;;16.71;70.28
11682;BME280;5897;42.640;23.310;2023-09-30T03:53:03;94307.53;;;16.54;71.55
11682;BME280;5897;42.640;23.310;2023-09-30T03:55:32;94305.41;;;16.58;72.16
11682;BME280;5897;42.640;23.310;2023-09-30T03:58:01;94307.69;;;16.60;72.90
11682;BME280;5897;42.640;23.310;2023-09-30T04:00:29;94305.72;;;16.51;72.95
11682;BME280;5897;42.640;23.310;2023-09-30T04:02:56;94303.75;;;16.52;74.61
11682;BME280;5897;42.640;23.310;2023-09-30T04:05:24;94311.94;;;16.61;74.53
11682;BME280;5897;42.640;23.310;2023-09-30T04:07:54;94311.16;;;16.60;73.51
11682;BME280;5897;42.640;23.310;2023-09-30T04:10:21;94315.28;;;16.65;73.10
11682;BME280;5897;42.640;23.310;2023-09-30T04:12:49;94315.41;;;16.70;72.51
11682;BME280;5897;42.640;23.310;2023-09-30T04:15:18;94312.69;;;16.70;72.04
11682;BME280;5897;42.640;23.310;2023-09-30T04:17:44;94314.22;;;16.53;72.34
11682;BME280;5897;42.640;23.310;2023-09-30T04:20:11;94313.16;;;16.51;71.99
11682;BME280;5897;42.640;23.310;2023-09-30T04:22:46;94316.19;;;16.62;71.63
11682;BME280;5897;42.640;23.310;2023-09-30T04:25:14;94317.53;;;16.48;71.61
11682;BME280;5897;42.640;23.310;2023-09-30T04:27:42;94321.34;;;16.42;71.92
11682;BME280;5897;42.640;23.310;2023-09-30T04:30:13;94319.84;;;16.41;71.77
11682;BME280;5897;42.640;23.310;2023-09-30T04:32:42;94331.47;;;16.32;72.08
11682;BME280;5897;42.640;23.310;2023-09-30T04:35:09;94331.44;;;16.23;73.46
11682;BME280;5897;42.640;23.310;2023-09-30T04:37:36;94331.44;;;16.23;74.04
11682;BME280;5897;42.640;23.310;2023-09-30T04:40:05;94306.72;;;16.09;74.19
11682;BME280;5897;42.640;23.310;2023-09-30T04:42:40;94324.94;;;16.30;75.06
11682;BME280;5897;42.640;23.310;2023-09-30T04:45:08;94333.25;;;16.17;75.40
11682;BME280;5897;42.640;23.310;2023-09-30T04:47:36;94334.75;;;16.18;75.55
11682;BME280;5897;42.640;23.310;2023-09-30T04:50:06;94343.69;;;16.28;75.20
11682;BME280;5897;42.640;23.310;2023-09-30T04:52:34;94344.94;;;16.36;75.10
11682;BME280;5897;42.640;23.310;2023-09-30T04:55:01;94334.66;;;16.40;75.13
11682;BME280;5897;42.640;23.310;2023-09-30T04:57:29;94337.69;;;16.42;74.42
11682;BME280;5897;42.640;23.310;2023-09-30T04:59:57;94347.19;;;16.37;75.60
11682;BME280;5897;42.640;23.310;2023-09-30T05:02:24;94342.84;;;16.40;76.13
11682;BME280;5897;42.640;23.310;2023-09-30T05:04:51;94347.97;;;16.38;76.76
11682;BME280;5897;42.640;23.310;2023-09-30T05:07:20;94346.19;;;16.44;76.80
11682;BME280;5897;42.640;23.310;2023-09-30T05:09:48;94348.75;;;16.47;76.75
11682;BME280;5897;42.640;23.310;2023-09-30T05:12:14;94347.25;;;16.55;77.01
11682;BME280;5897;42.640;23.310;2023-09-30T05:14:42;94351.06;;;16.58;77.20
11682;BME280;5897;42.640;23.310;2023-09-30T05:17:09;94344.81;;;16.57;77.05
11682;BME280;5897;42.640;23.310;2023-09-30T05:19:36;94347.66;;;16.36;76.60
11682;BME280;5897;42.640;23.310;2023-09-30T05:22:03;94350.13;;;16.43;76.63
11682;BME280;5897;42.640;23.310;2023-09-30T05:24:32;94346.50;;;16.55;76.92
11682;BME280;5897;42.640;23.310;2023-09-30T05:27:00;94346.34;;;16.67;75.66
11682;BME280;5897;42.640;23.310;2023-09-30T05:29:27;94356.19;;;16.74;74.84
11682;BME280;5897;42.640;23.310;2023-09-30T05:31:54;94350.28;;;16.84;76.03
11682;BME280;5897;42.640;23.310;2023-09-30T05:34:21;94355.72;;;16.93;75.84
11682;BME280;5897;42.640;23.310;2023-09-30T05:36:48;94350.72;;;17.01;76.37
11682;BME280;5897;42.640;23.310;2023-09-30T05:39:17;94356.47;;;17.12;75.19
11682;BME280;5897;42.640;23.310;2023-09-30T05:41:46;94356.31;;;17.15;74.44
11682;BME280;5897;42.640;23.310;2023-09-30T05:44:13;94363.56;;;17.27;74.29
11682;BME280;5897;42.640;23.310;2023-09-30T05:46:40;94359.94;;;17.39;74.20
11682;BME280;5897;42.640;23.310;2023-09-30T05:49:08;94364.00;;;17.53;73.81
11682;BME280;5897;42.640;23.310;2023-09-30T05:51:40;94369.28;;;17.65;73.94
11682;BME280;5897;42.640;23.310;2023-09-30T05:54:07;94364.81;;;17.86;76.46
11682;BME280;5897;42.640;23.310;2023-09-30T05:56:35;94367.09;;;18.11;74.64
11682;BME280;5897;42.640;23.310;2023-09-30T05:59:05;94375.38;;;18.25;73.38
11682;BME280;5897;42.640;23.310;2023-09-30T06:01:32;94373.66;;;18.46;73.58
11682;BME280;5897;42.640;23.310;2023-09-30T06:03:59;94356.69;;;18.56;72.80
11682;BME280;5897;42.640;23.310;2023-09-30T06:06:26;94368.88;;;18.93;72.90
11682;BME280;5897;42.640;23.310;2023-09-30T06:08:54;94376.28;;;19.16;71.08
11682;BME280;5897;42.640;23.310;2023-09-30T06:11:21;94381.16;;;19.36;69.97
11682;BME280;5897;42.640;23.310;2023-09-30T06:13:49;94375.88;;;19.47;67.68
11682;BME280;5897;42.640;23.310;2023-09-30T06:16:18;94380.63;;;19.61;66.81
11682;BME280;5897;42.640;23.310;2023-09-30T06:18:45;94381.19;;;19.79;66.18
11682;BME280;5897;42.640;23.310;2023-09-30T06:21:12;94377.00;;;19.98;65.23
11682;BME280;5897;42.640;23.310;2023-09-30T06:23:40;94381.03;;;20.17;63.70
11682;BME280;5897;42.640;23.310;2023-09-30T06:26:07;94390.75;;;20.33;62.96
11682;BME280;5897;42.640;23.310;2023-09-30T06:28:35;94386.81;;;20.54;62.93
11682;BME280;5897;42.640;23.310;2023-09-30T06:31:06;94395.81;;;20.74;62.51
11682;BME280;5897;42.640;23.310;2023-09-30T06:33:34;94391.03;;;20.89;60.89
11682;BME280;5897;42.640;23.310;2023-09-30T06:36:08;94396.47;;;21.04;59.81
11682;BME280;5897;42.640;23.310;2023-09-30T06:38:35;94393.59;;;21.13;58.69
11682;BME280;5897;42.640;23.310;2023-09-30T06:41:02;94389.38;;;21.17;57.03
11682;BME280;5897;42.640;23.310;2023-09-30T06:43:29;94397.06;;;21.33;57.04
11682;BME280;5897;42.640;23.310;2023-09-30T06:45:56;94396.03;;;21.31;56.09
11682;BME280;5897;42.640;23.310;2023-09-30T06:48:22;94396.34;;;21.38;54.43
11682;BME280;5897;42.640;23.310;2023-09-30T06:50:50;94395.97;;;21.51;53.85
11682;BME280;5897;42.640;23.310;2023-09-30T06:53:18;94392.53;;;21.56;53.08
11682;BME280;5897;42.640;23.310;2023-09-30T06:55:47;94398.41;;;21.69;53.81
11682;BME280;5897;42.640;23.310;2023-09-30T06:58:14;94400.31;;;21.83;51.82
11682;BME280;5897;42.640;23.310;2023-09-30T07:00:46;94403.25;;;22.05;52.36
11682;BME280;5897;42.640;23.310;2023-09-30T07:03:14;94401.25;;;22.05;51.79
11682;BME280;5897;42.640;23.310;2023-09-30T07:05:41;94403.38;;;22.21;51.60
11682;BME280;5897;42.640;23.310;2023-09-30T07:08:10;94412.41;;;22.22;53.63
11682;BME280;5897;42.640;23.310;2023-09-30T07:10:36;94414.00;;;22.39;52.47
11682;BME280;5897;42.640;23.310;2023-09-30T07:13:03;94404.88;;;22.22;51.41
11682;BME280;5897;42.640;23.310;2023-09-30T07:15:32;94408.88;;;22.52;50.44
11682;BME280;5897;42.640;23.310;2023-09-30T07:17:59;94403.88;;;22.56;49.99
11682;BME280;5897;42.640;23.310;2023-09-30T07:20:26;94404.72;;;22.68;48.75
11682;BME280;5897;42.640;23.310;2023-09-30T07:22:53;94405.78;;;22.81;47.76
11682;BME280;5897;42.640;23.310;2023-09-30T07:25:21;94408.13;;;22.99;47.53
11682;BME280;5897;42.640;23.310;2023-09-30T07:27:48;94415.41;;;23.02;47.10
11682;BME280;5897;42.640;23.310;2023-09-30T07:30:15;94416.19;;;23.08;45.05
11682;BME280;5897;42.640;23.310;2023-09-30T07:32:41;94413.25;;;23.17;43.98
11682;BME280;5897;42.640;23.310;2023-09-30T07:35:09;94420.78;;;23.28;45.58
11682;BME280;5897;42.640;23.310;2023-09-30T07:37:36;94418.53;;;23.21;45.33
11682;BME280;5897;42.640;23.310;2023-09-30T07:40:03;94415.06;;;23.42;44.73
11682;BME280;5897;42.640;23.310;2023-09-30T07:42:31;94424.16;;;23.59;43.63
11682;BME280;5897;42.640;23.310;2023-09-30T07:45:00;94418.94;;;23.72;40.64
11682;BME280;5897;42.640;23.310;2023-09-30T07:47:29;94413.47;;;23.89;41.78
11682;BME280;5897;42.640;23.310;2023-09-30T07:49:56;94415.47;;;24.10;39.56
11682;BME280;5897;42.640;23.310;2023-09-30T07:52:22;94420.00;;;24.19;36.68
11682;BME280;5897;42.640;23.310;2023-09-30T07:54:49;94417.97;;;24.25;37.97
11682;BME280;5897;42.640;23.310;2023-09-30T07:57:16;94424.28;;;24.36;38.68
11682;BME280;5897;42.640;23.310;2023-09-30T07:59:44;94416.22;;;24.55;38.76
11682;BME280;5897;42.640;23.310;2023-09-30T08:02:11;94418.72;;;24.64;37.24
11682;BME280;5897;42.640;23.310;2023-09-30T08:04:38;94415.94;;;24.75;37.02
11682;BME280;5897;42.640;23.310;2023-09-30T08:07:04;94408.41;;;24.81;36.63
11682;BME280;5897;42.640;23.310;2023-09-30T08:09:31;94417.41;;;25.03;36.17
11682;BME280;5897;42.640;23.310;2023-09-30T08:11:58;94412.84;;;25.11;35.83
11682;BME280;5897;42.640;23.310;2023-09-30T08:14:24;94413.59;;;25.12;34.80
11682;BME280;5897;42.640;23.310;2023-09-30T08:16:53;94408.06;;;25.12;35.89
11682;BME280;5897;42.640;23.310;2023-09-30T08:19:19;94408.50;;;25.32;36.17
11682;BME280;5897;42.640;23.310;2023-09-30T08:21:47;94416.53;;;25.36;35.45
11682;BME280;5897;42.640;23.310;2023-09-30T08:24:14;94413.44;;;25.50;35.46
11682;BME280;5897;42.640;23.310;2023-09-30T08:26:41;94414.13;;;25.67;34.15
11682;BME280;5897;42.640;23.310;2023-09-30T08:29:07;94411.25;;;25.84;34.53
11682;BME280;5897;42.640;23.310;2023-09-30T08:31:34;94406.94;;;25.94;34.37
11682;BME280;5897;42.640;23.310;2023-09-30T08:34:02;94419.13;;;26.15;33.99
11682;BME280;5897;42.640;23.310;2023-09-30T08:36:30;94413.81;;;26.17;34.26
11682;BME280;5897;42.640;23.310;2023-09-30T08:38:57;94417.47;;;26.30;31.25
11682;BME280;5897;42.640;23.310;2023-09-30T08:41:30;94409.22;;;26.25;30.05
11682;BME280;5897;42.640;23.310;2023-09-30T08:43:59;94403.56;;;26.36;28.93
11682;BME280;5897;42.640;23.310;2023-09-30T08:46:29;94413.75;;;26.52;28.35
11682;BME280;5897;42.640;23.310;2023-09-30T08:48:58;94403.38;;;26.63;28.74
11682;BME280;5897;42.640;23.310;2023-09-30T08:51:28;94408.81;;;26.74;28.32
11682;BME280;5897;42.640;23.310;2023-09-30T08:53:56;94399.72;;;26.74;29.69
11682;BME280;5897;42.640;23.310;2023-09-30T08:56:27;94395.69;;;26.75;29.71
11682;BME280;5897;42.640;23.310;2023-09-30T08:58:56;94404.00;;;26.75;29.51
11682;BME280;5897;42.640;23.310;2023-09-30T09:01:24;94400.66;;;26.82;29.44
11682;BME280;5897;42.640;23.310;2023-09-30T09:03:51;94373.50;;;26.75;28.35
11682;BME280;5897;42.640;23.310;2023-09-30T09:06:19;94394.81;;;27.09;29.40
11682;BME280;5897;42.640;23.310;2023-09-30T09:08:47;94396.59;;;27.31;29.52
11682;BME280;5897;42.640;23.310;2023-09-30T09:11:14;94400.00;;;27.42;29.25
11682;BME280;5897;42.640;23.310;2023-09-30T09:13:48;94393.59;;;27.66;28.39
11682;BME280;5897;42.640;23.310;2023-09-30T09:16:16;94368.09;;;27.67;28.35
11682;BME280;5897;42.640;23.310;2023-09-30T09:18:45;94385.97;;;27.90;27.70
11682;BME280;5897;42.640;23.310;2023-09-30T09:21:14;94382.50;;;28.03;25.34
11682;BME280;5897;42.640;23.310;2023-09-30T09:23:42;94391.19;;;28.12;25.63
11682;BME280;5897;42.640;23.310;2023-09-30T09:26:12;94391.31;;;28.20;25.04
11682;BME280;5897;42.640;23.310;2023-09-30T09:28:39;94397.75;;;28.28;25.46
11682;BME280;5897;42.640;23.310;2023-09-30T09:31:20;94386.78;;;28.35;25.31
11682;BME280;5897;42.640;23.310;2023-09-30T09:33:48;94380.56;;;28.29;25.73
11682;BME280;5897;42.640;23.310;2023-09-30T09:36:15;94383.63;;;28.44;25.76
11682;BME280;5897;42.640;23.310;2023-09-30T09:38:48;94396.16;;;28.32;26.11
11682;BME280;5897;42.640;23.310;2023-09-30T09:41:18;94388.56;;;28.51;25.36
11682;BME280;5897;42.640;23.310;2023-09-30T09:43:48;94392.72;;;28.26;26.16
11682;BME280;5897;42.640;23.310;2023-09-30T09:46:16;94370.25;;;28.11;25.83
11682;BME280;5897;42.640;23.310;2023-09-30T09:48:45;94377.84;;;28.42;25.24
11682;BME280;5897;42.640;23.310;2023-09-30T09:51:13;94372.91;;;28.17;25.62
11682;BME280;5897;42.640;23.310;2023-09-30T09:53:41;94377.25;;;28.31;25.15
11682;BME280;5897;42.640;23.310;2023-09-30T09:56:09;94375.75;;;28.30;25.40
11682;BME280;5897;42.640;23.310;2023-09-30T09:58:39;94374.78;;;28.59;25.02
11682;BME280;5897;42.640;23.310;2023-09-30T10:01:09;94368.81;;;28.81;24.56
11682;BME280;5897;42.640;23.310;2023-09-30T10:03:38;94369.28;;;28.98;24.63
11682;BME280;5897;42.640;23.310;2023-09-30T10:06:06;94367.44;;;29.00;24.84
11682;BME280;5897;42.640;23.310;2023-09-30T10:08:37;94354.59;;;29.23;25.38
11682;BME280;5897;42.640;23.310;2023-09-30T10:11:06;94336.19;;;28.94;24.92
11682;BME280;5897;42.640;23.310;2023-09-30T10:13:56;94361.22;;;28.94;24.80
11682;BME280;5897;42.640;23.310;2023-09-30T10:16:49;94353.94;;;29.17;24.29
11682;BME280;5897;42.640;23.310;2023-09-30T10:19:19;94353.25;;;29.50;24.33
11682;BME280;5897;42.640;23.310;2023-09-30T10:22:21;94349.44;;;29.27;24.53
11682;BME280;5897;42.640;23.310;2023-09-30T10:24:50;94339.13;;;29.61;23.31
11682;BME280;5897;42.640;23.310;2023-09-30T10:27:33;94320.63;;;29.84;22.98
11682;BME280;5897;42.640;23.310;2023-09-30T10:30:11;94334.56;;;30.18;22.38
11682;BME280;5897;42.640;23.310;2023-09-30T10:33:07;94327.41;;;30.30;22.72
11682;BME280;5897;42.640;23.310;2023-09-30T10:35:46;94318.47;;;30.52;22.89
11682;BME280;5897;42.640;23.310;2023-09-30T10:38:39;94328.28;;;30.66;22.95
11682;BME280;5897;42.640;23.310;2023-09-30T10:41:09;94323.69;;;30.76;22.57
11682;BME280;5897;42.640;23.310;2023-09-30T10:43:39;94322.00;;;30.73;21.11
11682;BME280;5897;42.640;23.310;2023-09-30T10:46:32;94324.13;;;30.87;21.82
11682;BME280;5897;42.640;23.310;2023-09-30T10:49:31;94324.78;;;31.36;21.03
11682;BME280;5897;42.640;23.310;2023-09-30T10:51:59;94310.22;;;30.95;21.18
11682;BME280;5897;42.640;23.310;2023-09-30T10:54:27;94313.09;;;31.10;20.73
11682;BME280;5897;42.640;23.310;2023-09-30T10:56:55;94305.28;;;31.44;21.53
11682;BME280;5897;42.640;23.310;2023-09-30T10:59:25;94311.88;;;31.69;21.02
11682;BME280;5897;42.640;23.310;2023-09-30T11:01:53;94314.09;;;31.63;19.76
11682;BME280;5897;42.640;23.310;2023-09-30T11:04:20;94291.22;;;30.86;20.61
11682;BME280;5897;42.640;23.310;2023-09-30T11:06:48;94303.63;;;29.75;22.29
11682;BME280;5897;42.640;23.310;2023-09-30T11:09:17;94312.44;;;30.20;21.68
11682;BME280;5897;42.640;23.310;2023-09-30T11:11:46;94307.97;;;30.37;21.20
11682;BME280;5897;42.640;23.310;2023-09-30T11:14:22;94307.44;;;30.67;20.62
11682;BME280;5897;42.640;23.310;2023-09-30T11:16:51;94297.28;;;30.77;20.90
11682;BME280;5897;42.640;23.310;2023-09-30T11:19:23;94300.06;;;31.05;20.60
11682;BME280;5897;42.640;23.310;2023-09-30T11:21:51;94292.66;;;31.15;20.27
11682;BME280;5897;42.640;23.310;2023-09-30T11:24:19;94292.00;;;30.94;20.83
11682;BME280;5897;42.640;23.310;2023-09-30T11:26:46;94294.13;;;31.08;20.06
11682;BME280;5897;42.640;23.310;2023-09-30T11:29:14;94295.84;;;31.19;20.53
11682;BME280;5897;42.640;23.310;2023-09-30T11:31:43;94301.38;;;31.47;19.79
11682;BME280;5897;42.640;23.310;2023-09-30T11:34:10;94292.41;;;31.05;20.05
11682;BME280;5897;42.640;23.310;2023-09-30T11:36:41;94292.53;;;31.20;20.26
11682;BME280;5897;42.640;23.310;2023-09-30T11:39:21;94285.19;;;31.10;20.14
11682;BME280;5897;42.640;23.310;2023-09-30T11:41:49;94290.03;;;31.09;20.70
11682;BME280;5897;42.640;23.310;2023-09-30T11:44:16;94291.69;;;31.48;20.28
11682;BME280;5897;42.640;23.310;2023-09-30T11:46:50;94278.94;;;31.75;19.77
11682;BME280;5897;42.640;23.310;2023-09-30T11:49:27;94290.16;;;32.05;19.71
11682;BME280;5897;42.640;23.310;2023-09-30T11:51:56;94274.34;;;32.00;19.76
11682;BME280;5897;42.640;23.310;2023-09-30T11:54:28;94279.56;;;32.11;19.69
11682;BME280;5897;42.640;23.310;2023-09-30T11:56:55;94263.91;;;32.15;19.48
11682;BME280;5897;42.640;23.310;2023-09-30T11:59:22;94274.34;;;31.92;20.17
11682;BME280;5897;42.640;23.310;2023-09-30T12:01:49;94275.81;;;32.16;20.04
11682;BME280;5897;42.640;23.310;2023-09-30T12:04:17;94270.44;;;32.18;19.80
11682;BME280;5897;42.640;23.310;2023-09-30T12:06:45;94245.09;;;32.31;19.41
11682;BME280;5897;42.640;23.310;2023-09-30T12:09:14;94264.63;;;32.68;19.35
11682;BME280;5897;42.640;23.310;2023-09-30T12:11:42;94258.44;;;32.92;19.45
11682;BME280;5897;42.640;23.310;2023-09-30T12:14:10;94253.72;;;33.17;19.31
11682;BME280;5897;42.640;23.310;2023-09-30T12:16:38;94242.03;;;33.43;19.05
11682;BME280;5897;42.640;23.310;2023-09-30T12:19:04;94250.25;;;33.49;18.99
11682;BME280;5897;42.640;23.310;2023-09-30T12:21:32;94232.31;;;33.76;18.95
11682;BME280;5897;42.640;23.310;2023-09-30T12:23:59;94243.25;;;33.97;18.59
11682;BME280;5897;42.640;23.310;2023-09-30T12:26:28;94236.75;;;33.87;18.52
11682;BME280;5897;42.640;23.310;2023-09-30T12:28:56;94211.44;;;33.70;18.50
11682;BME280;5897;42.640;23.310;2023-09-30T12:31:23;94225.19;;;33.90;17.80
11682;BME280;5897;42.640;23.310;2023-09-30T12:33:50;94225.69;;;33.96;19.15
11682;BME280;5897;42.640;23.310;2023-09-30T12:36:21;94225.81;;;33.74;17.70
11682;BME280;5897;42.640;23.310;2023-09-30T12:38:49;94223.97;;;33.69;18.29
11682;BME280;5897;42.640;23.310;2023-09-30T12:41:16;94230.84;;;32.96;18.63
11682;BME280;5897;42.640;23.310;2023-09-30T12:43:46;94224.91;;;32.85;18.56
11682;BME280;5897;42.640;23.310;2023-09-30T12:46:12;94222.16;;;33.17;18.40
11682;BME280;5897;42.640;23.310;2023-09-30T12:48:39;94207.81;;;33.13;18.44
11682;BME280;5897;42.640;23.310;2023-09-30T12:51:06;94215.31;;;33.10;18.62
11682;BME280;5897;42.640;23.310;2023-09-30T12:53:34;94206.25;;;33.27;18.98
11682;BME280;5897;42.640;23.310;2023-09-30T12:56:01;94207.59;;;33.18;19.24
11682;BME280;5897;42.640;23.310;2023-09-30T12:58:27;94208.34;;;33.19;18.86
11682;BME280;5897;42.640;23.310;2023-09-30T13:00:58;94208.47;;;32.89;19.14
11682;BME280;5897;42.640;23.310;2023-09-30T13:03:25;94200.22;;;32.98;19.35
11682;BME280;5897;42.640;23.310;2023-09-30T13:05:52;94202.56;;;33.17;18.27
11682;BME280;5897;42.640;23.310;2023-09-30T13:08:19;94203.69;;;32.52;19.06